9JMJB FLKK-DAAG
Flight info
| Callsign | 9JMJB |
|---|---|
| Flight time | N/A |
| Altitude | 36000 |
| Route | VLS UG652 ITLOR UM214 RAPOL UA607 DIR UB730 DJA J61 ILZ UB727 TILMA UA605 RIMEL UR985 BSA J66 ALR |
| Aircraft | C550/L-SDFGHRWY/S |
Departure
| Time | 2026-04-28 10:39 |
|---|---|
| Airport | Kenneth Kaunda International Airport (FLKK) |
Arrival
| Time | N/A |
|---|---|
| Airport | Houari Boumediene Airport (DAAG) |
| Time | Latitude | Longitude | Altitude | Speed | Heading |
|---|---|---|---|---|---|
| 2026-04-28 10:04 | -15.32619 | 28.44502 | 3805 ft | 0 kts | 6° |
| 2026-04-28 10:35 | -15.32617 | 28.44489 | 3807 ft | 3 kts | 231° |
| 2026-04-28 10:35 | -15.32621 | 28.44485 | 3807 ft | 0 kts | 229° |
| 2026-04-28 10:36 | -15.32628 | 28.44476 | 3807 ft | 5 kts | 231° |
| 2026-04-28 10:36 | -15.32650 | 28.44441 | 3809 ft | 6 kts | 243° |
| 2026-04-28 10:36 | -15.32658 | 28.44390 | 3808 ft | 9 kts | 275° |
| 2026-04-28 10:36 | -15.32666 | 28.44312 | 3803 ft | 11 kts | 223° |
| 2026-04-28 10:37 | -15.32743 | 28.44297 | 3799 ft | 14 kts | 185° |
| 2026-04-28 10:37 | -15.32828 | 28.44346 | 3787 ft | 14 kts | 140° |
| 2026-04-28 10:37 | -15.32899 | 28.44406 | 3779 ft | 13 kts | 141° |
| 2026-04-28 10:37 | -15.32959 | 28.44457 | 3779 ft | 9 kts | 141° |
| 2026-04-28 10:38 | -15.33003 | 28.44498 | 3778 ft | 9 kts | 130° |
| 2026-04-28 10:38 | -15.33025 | 28.44616 | 3775 ft | 37 kts | 95° |
| 2026-04-28 10:38 | -15.33072 | 28.45176 | 3768 ft | 114 kts | 95° |
| 2026-04-28 10:38 | -15.33168 | 28.46091 | 4114 ft | 140 kts | 96° |
| 2026-04-28 10:39 | -15.33300 | 28.47185 | 4637 ft | 167 kts | 97° |
| 2026-04-28 10:39 | -15.33463 | 28.48459 | 5275 ft | 190 kts | 97° |
| 2026-04-28 10:39 | -15.33618 | 28.49837 | 6194 ft | 197 kts | 96° |
| 2026-04-28 10:39 | -15.33691 | 28.51184 | 7332 ft | 189 kts | 86° |
| 2026-04-28 10:40 | -15.33413 | 28.52399 | 8617 ft | 171 kts | 68° |
| 2026-04-28 10:40 | -15.32789 | 28.53363 | 9573 ft | 169 kts | 50° |
| 2026-04-28 10:40 | -15.31823 | 28.54079 | 10369 ft | 178 kts | 31° |
| 2026-04-28 10:40 | -15.30617 | 28.54430 | 11128 ft | 189 kts | 13° |
| 2026-04-28 10:41 | -15.29303 | 28.54361 | 11889 ft | 199 kts | 355° |
| 2026-04-28 10:41 | -15.27983 | 28.53847 | 12642 ft | 209 kts | 337° |
| 2026-04-28 10:41 | -15.26819 | 28.52927 | 13344 ft | 219 kts | 318° |
| 2026-04-28 10:41 | -15.25905 | 28.51649 | 14047 ft | 226 kts | 301° |
| 2026-04-28 10:42 | -15.25196 | 28.50203 | 14760 ft | 228 kts | 296° |
| 2026-04-28 10:42 | -15.24515 | 28.48722 | 15472 ft | 230 kts | 295° |
| 2026-04-28 10:42 | -15.23828 | 28.47209 | 16178 ft | 232 kts | 294° |
| 2026-04-28 10:42 | -15.23149 | 28.45704 | 16858 ft | 233 kts | 294° |
| 2026-04-28 10:43 | -15.22463 | 28.44182 | 17528 ft | 235 kts | 293° |
| 2026-04-28 10:43 | -15.21780 | 28.42665 | 18182 ft | 236 kts | 292° |
| 2026-04-28 10:43 | -15.21089 | 28.41126 | 18831 ft | 237 kts | 292° |
| 2026-04-28 10:43 | -15.20344 | 28.39608 | 19465 ft | 240 kts | 301° |
| 2026-04-28 10:44 | -15.19259 | 28.38288 | 20084 ft | 243 kts | 317° |
| 2026-04-28 10:44 | -15.17897 | 28.37288 | 20673 ft | 245 kts | 328° |
| 2026-04-28 10:44 | -15.16439 | 28.36345 | 21259 ft | 247 kts | 325° |
| 2026-04-28 10:44 | -15.15030 | 28.35346 | 21831 ft | 248 kts | 323° |
| 2026-04-28 10:45 | -15.13633 | 28.34324 | 22396 ft | 249 kts | 322° |
| 2026-04-28 10:45 | -15.12229 | 28.33291 | 22955 ft | 250 kts | 322° |
| 2026-04-28 10:45 | -15.10810 | 28.32248 | 23508 ft | 251 kts | 322° |
| 2026-04-28 10:45 | -15.09392 | 28.31206 | 24047 ft | 252 kts | 321° |
| 2026-04-28 10:46 | -15.07977 | 28.30167 | 24571 ft | 253 kts | 321° |
| 2026-04-28 10:46 | -15.06548 | 28.29117 | 25089 ft | 253 kts | 321° |
| 2026-04-28 10:46 | -15.05104 | 28.28057 | 25600 ft | 254 kts | 321° |
| 2026-04-28 10:46 | -15.03678 | 28.27010 | 26093 ft | 255 kts | 321° |
| 2026-04-28 10:47 | -15.02243 | 28.25957 | 26581 ft | 255 kts | 320° |
| 2026-04-28 10:47 | -15.00784 | 28.24886 | 27067 ft | 256 kts | 320° |
| 2026-04-28 10:47 | -14.99358 | 28.23839 | 27530 ft | 256 kts | 320° |
| 2026-04-28 10:47 | -14.97894 | 28.22765 | 27993 ft | 256 kts | 320° |
| 2026-04-28 10:48 | -14.96458 | 28.21712 | 28434 ft | 257 kts | 320° |
| 2026-04-28 10:48 | -14.95001 | 28.20643 | 28872 ft | 257 kts | 320° |
| 2026-04-28 10:48 | -14.93544 | 28.19575 | 29298 ft | 258 kts | 320° |
| 2026-04-28 10:48 | -14.92084 | 28.18505 | 29714 ft | 259 kts | 320° |
| 2026-04-28 10:49 | -14.90617 | 28.17430 | 30121 ft | 259 kts | 321° |
| 2026-04-28 10:49 | -14.89141 | 28.16348 | 30516 ft | 260 kts | 321° |
| 2026-04-28 10:49 | -14.87670 | 28.15269 | 30893 ft | 261 kts | 321° |
| 2026-04-28 10:49 | -14.86203 | 28.14196 | 31262 ft | 261 kts | 321° |
| 2026-04-28 10:50 | -14.84733 | 28.13120 | 31623 ft | 262 kts | 321° |
| 2026-04-28 10:50 | -14.83229 | 28.12019 | 31983 ft | 263 kts | 321° |
| 2026-04-28 10:50 | -14.81750 | 28.10936 | 32326 ft | 264 kts | 321° |
| 2026-04-28 10:50 | -14.80263 | 28.09848 | 32663 ft | 265 kts | 321° |
| 2026-04-28 10:51 | -14.78752 | 28.08742 | 32997 ft | 265 kts | 321° |
| 2026-04-28 10:51 | -14.77251 | 28.07645 | 33321 ft | 266 kts | 321° |
| 2026-04-28 10:51 | -14.75739 | 28.06539 | 33641 ft | 267 kts | 321° |
| 2026-04-28 10:51 | -14.74227 | 28.05433 | 33951 ft | 268 kts | 321° |
| 2026-04-28 10:52 | -14.72707 | 28.04322 | 34249 ft | 269 kts | 322° |
| 2026-04-28 10:52 | -14.71189 | 28.03213 | 34528 ft | 270 kts | 322° |
| 2026-04-28 10:52 | -14.69637 | 28.02081 | 34807 ft | 272 kts | 322° |
| 2026-04-28 10:52 | -14.68116 | 28.00969 | 35071 ft | 271 kts | 322° |
| 2026-04-28 10:53 | -14.66569 | 27.99840 | 35256 ft | 272 kts | 322° |
| 2026-04-28 10:53 | -14.65035 | 27.98719 | 35385 ft | 274 kts | 322° |
| 2026-04-28 10:53 | -14.63467 | 27.97574 | 35520 ft | 275 kts | 322° |
| 2026-04-28 10:53 | -14.61914 | 27.96439 | 35672 ft | 276 kts | 322° |
| 2026-04-28 10:54 | -14.60353 | 27.95300 | 35834 ft | 277 kts | 322° |
| 2026-04-28 10:54 | -14.58791 | 27.94160 | 35990 ft | 277 kts | 322° |
| 2026-04-28 10:54 | -14.57208 | 27.93005 | 36140 ft | 278 kts | 322° |
| 2026-04-28 10:54 | -14.55630 | 27.91853 | 36203 ft | 282 kts | 322° |
| 2026-04-28 10:55 | -14.54015 | 27.90674 | 36211 ft | 288 kts | 322° |
| 2026-04-28 10:55 | -14.52350 | 27.89459 | 36212 ft | 293 kts | 322° |
| 2026-04-28 10:55 | -14.50670 | 27.88233 | 36212 ft | 299 kts | 322° |
| 2026-04-28 10:56 | -14.47207 | 27.85710 | 36211 ft | 308 kts | 322° |
| 2026-04-28 10:56 | -14.43648 | 27.83116 | 36211 ft | 317 kts | 322° |
| 2026-04-28 10:57 | -14.39987 | 27.80450 | 36210 ft | 324 kts | 322° |
| 2026-04-28 10:57 | -14.36270 | 27.77744 | 36210 ft | 330 kts | 322° |
| 2026-04-28 10:58 | -14.32474 | 27.74980 | 36210 ft | 335 kts | 322° |
| 2026-04-28 10:58 | -14.28628 | 27.72182 | 36209 ft | 339 kts | 322° |
| 2026-04-28 10:59 | -14.24759 | 27.69369 | 36209 ft | 343 kts | 322° |
| 2026-04-28 10:59 | -14.20854 | 27.66555 | 36209 ft | 345 kts | 322° |
| 2026-04-28 11:00 | -14.16718 | 27.64305 | 36210 ft | 352 kts | 339° |
| 2026-04-28 11:00 | -14.11856 | 27.63622 | 36126 ft | 360 kts | 2° |
| 2026-04-28 11:00 | -14.09367 | 27.63965 | 36064 ft | 362 kts | 13° |
| 2026-04-28 11:01 | -14.06986 | 27.64741 | 36057 ft | 363 kts | 22° |
| 2026-04-28 11:01 | -14.02745 | 27.67517 | 36056 ft | 363 kts | 42° |
| 2026-04-28 11:02 | -13.99677 | 27.71598 | 36056 ft | 363 kts | 62° |
| 2026-04-28 11:02 | -13.97820 | 27.76429 | 36055 ft | 364 kts | 70° |
| 2026-04-28 11:03 | -13.96127 | 27.81321 | 36055 ft | 364 kts | 70° |
| 2026-04-28 11:03 | -13.94427 | 27.86235 | 36054 ft | 365 kts | 70° |
| 2026-04-28 11:04 | -13.92871 | 27.91204 | 36055 ft | 365 kts | 79° |
| 2026-04-28 11:04 | -13.92762 | 27.96350 | 36056 ft | 365 kts | 98° |
| 2026-04-28 11:04 | -13.93361 | 27.98907 | 36056 ft | 365 kts | 109° |
| 2026-04-28 11:05 | -13.94357 | 28.01275 | 36056 ft | 365 kts | 118° |
| 2026-04-28 11:05 | -13.97478 | 28.05361 | 36056 ft | 365 kts | 138° |
| 2026-04-28 11:06 | -14.01744 | 28.08113 | 36056 ft | 365 kts | 158° |
| 2026-04-28 11:06 | -14.06687 | 28.09222 | 36056 ft | 365 kts | 178° |
| 2026-04-28 11:07 | -14.11722 | 28.08688 | 35724 ft | 369 kts | 190° |
| 2026-04-28 11:07 | -14.14255 | 28.08216 | 35396 ft | 369 kts | 190° |
| 2026-04-28 11:07 | -14.16756 | 28.07748 | 35001 ft | 371 kts | 190° |
| 2026-04-28 11:07 | -14.19334 | 28.07265 | 34596 ft | 373 kts | 190° |
| 2026-04-28 11:08 | -14.21903 | 28.06783 | 34195 ft | 375 kts | 190° |
| 2026-04-28 11:08 | -14.24475 | 28.06301 | 33794 ft | 376 kts | 190° |
| 2026-04-28 11:08 | -14.27028 | 28.05822 | 33397 ft | 377 kts | 190° |
| 2026-04-28 11:08 | -14.29620 | 28.05337 | 32995 ft | 378 kts | 190° |
| 2026-04-28 11:09 | -14.32215 | 28.05031 | 32597 ft | 379 kts | 181° |
| 2026-04-28 11:09 | -14.34833 | 28.05184 | 32199 ft | 379 kts | 172° |
| 2026-04-28 11:09 | -14.37393 | 28.05784 | 31800 ft | 379 kts | 162° |
| 2026-04-28 11:09 | -14.39812 | 28.06807 | 31404 ft | 379 kts | 153° |
| 2026-04-28 11:10 | -14.42130 | 28.08116 | 31003 ft | 380 kts | 153° |
| 2026-04-28 11:10 | -14.44547 | 28.09213 | 30603 ft | 380 kts | 158° |
| 2026-04-28 11:10 | -14.47016 | 28.10179 | 30202 ft | 380 kts | 160° |
| 2026-04-28 11:10 | -14.49464 | 28.11096 | 29807 ft | 380 kts | 160° |
| 2026-04-28 11:11 | -14.51961 | 28.12023 | 29404 ft | 380 kts | 160° |
| 2026-04-28 11:11 | -14.54419 | 28.12934 | 29008 ft | 380 kts | 160° |
| 2026-04-28 11:11 | -14.56912 | 28.13858 | 28605 ft | 380 kts | 160° |
| 2026-04-28 11:11 | -14.59378 | 28.14772 | 28207 ft | 379 kts | 160° |
| 2026-04-28 11:12 | -14.61843 | 28.15686 | 27809 ft | 379 kts | 160° |
| 2026-04-28 11:12 | -14.64340 | 28.16612 | 27405 ft | 379 kts | 160° |
| 2026-04-28 11:12 | -14.66807 | 28.17528 | 27006 ft | 379 kts | 160° |
| 2026-04-28 11:12 | -14.69277 | 28.18444 | 26606 ft | 378 kts | 160° |
| 2026-04-28 11:13 | -14.71724 | 28.19352 | 26210 ft | 381 kts | 160° |
| 2026-04-28 11:13 | -14.74245 | 28.20288 | 25808 ft | 385 kts | 160° |
| 2026-04-28 11:13 | -14.76787 | 28.21232 | 25406 ft | 388 kts | 160° |
| 2026-04-28 11:13 | -14.79320 | 28.22175 | 25104 ft | 388 kts | 160° |
| 2026-04-28 11:14 | -14.81813 | 28.23120 | 25059 ft | 381 kts | 160° |
| 2026-04-28 11:14 | -14.84283 | 28.24061 | 25054 ft | 374 kts | 160° |
| 2026-04-28 11:14 | -14.86701 | 28.24982 | 25053 ft | 369 kts | 160° |
| 2026-04-28 11:14 | -14.89096 | 28.25895 | 25053 ft | 364 kts | 160° |
| 2026-04-28 11:15 | -14.91466 | 28.26798 | 25054 ft | 360 kts | 160° |
| 2026-04-28 11:15 | -14.93778 | 28.27680 | 25054 ft | 357 kts | 160° |
| 2026-04-28 11:15 | -14.96102 | 28.28566 | 25054 ft | 354 kts | 160° |
| 2026-04-28 11:15 | -14.98418 | 28.29450 | 25054 ft | 352 kts | 160° |
| 2026-04-28 11:16 | -15.00684 | 28.30315 | 25054 ft | 350 kts | 160° |
| 2026-04-28 11:16 | -15.02969 | 28.31187 | 25054 ft | 349 kts | 160° |
| 2026-04-28 11:16 | -15.05224 | 28.32048 | 25054 ft | 347 kts | 160° |
| 2026-04-28 11:16 | -15.07496 | 28.32916 | 25054 ft | 346 kts | 160° |
| 2026-04-28 11:17 | -15.09734 | 28.33770 | 25054 ft | 345 kts | 160° |
| 2026-04-28 11:17 | -15.11971 | 28.34625 | 25054 ft | 344 kts | 160° |
| 2026-04-28 11:17 | -15.14223 | 28.35485 | 25054 ft | 343 kts | 160° |
| 2026-04-28 11:17 | -15.16444 | 28.36334 | 25054 ft | 343 kts | 160° |
| 2026-04-28 11:18 | -15.18680 | 28.37189 | 25054 ft | 342 kts | 160° |
| 2026-04-28 11:18 | -15.20916 | 28.38044 | 25054 ft | 342 kts | 160° |
| 2026-04-28 11:18 | -15.23126 | 28.38889 | 25054 ft | 341 kts | 160° |
| 2026-04-28 11:18 | -15.25340 | 28.39737 | 25054 ft | 341 kts | 160° |
| 2026-04-28 11:19 | -15.27583 | 28.40595 | 25054 ft | 341 kts | 160° |
| 2026-04-28 11:19 | -15.29795 | 28.41441 | 25054 ft | 341 kts | 160° |
| 2026-04-28 11:19 | -15.32014 | 28.42291 | 25054 ft | 340 kts | 160° |
| 2026-04-28 11:19 | -15.34207 | 28.43130 | 25054 ft | 340 kts | 160° |
| 2026-04-28 11:20 | -15.36440 | 28.43986 | 25054 ft | 340 kts | 160° |
| 2026-04-28 11:20 | -15.38651 | 28.44833 | 25054 ft | 340 kts | 160° |
| 2026-04-28 11:20 | -15.40866 | 28.45682 | 25054 ft | 340 kts | 160° |
| 2026-04-28 11:20 | -15.43075 | 28.46528 | 25054 ft | 340 kts | 160° |
| 2026-04-28 11:21 | -15.45305 | 28.47383 | 25054 ft | 340 kts | 160° |
| 2026-04-28 11:21 | -15.47537 | 28.48239 | 25054 ft | 340 kts | 160° |
| 2026-04-28 11:21 | -15.49764 | 28.49093 | 25054 ft | 340 kts | 160° |
| 2026-04-28 11:21 | -15.51957 | 28.49935 | 25054 ft | 340 kts | 160° |
| 2026-04-28 11:22 | -15.54197 | 28.50794 | 25054 ft | 340 kts | 160° |
| 2026-04-28 11:22 | -15.56389 | 28.51635 | 25054 ft | 340 kts | 160° |
| 2026-04-28 11:22 | -15.58606 | 28.52486 | 25054 ft | 340 kts | 160° |
| 2026-04-28 11:22 | -15.60821 | 28.53337 | 25054 ft | 340 kts | 160° |
| 2026-04-28 11:23 | -15.63020 | 28.54181 | 25054 ft | 340 kts | 160° |
| 2026-04-28 11:23 | -15.65235 | 28.55032 | 25054 ft | 340 kts | 160° |
| 2026-04-28 11:23 | -15.67453 | 28.55885 | 25054 ft | 340 kts | 160° |
| 2026-04-28 11:23 | -15.69672 | 28.56737 | 25054 ft | 340 kts | 160° |
| 2026-04-28 11:24 | -15.71858 | 28.57578 | 25054 ft | 340 kts | 160° |
| 2026-04-28 11:24 | -15.74065 | 28.58426 | 25054 ft | 340 kts | 160° |
| 2026-04-28 11:24 | -15.76294 | 28.59284 | 25054 ft | 340 kts | 160° |
| 2026-04-28 11:24 | -15.78507 | 28.60135 | 25054 ft | 340 kts | 160° |
| 2026-04-28 11:25 | -15.80706 | 28.60981 | 25054 ft | 340 kts | 160° |
| 2026-04-28 11:25 | -15.82924 | 28.61835 | 25054 ft | 340 kts | 160° |
| 2026-04-28 11:25 | -15.85113 | 28.62677 | 25054 ft | 340 kts | 160° |
| 2026-04-28 11:25 | -15.87323 | 28.63528 | 25054 ft | 340 kts | 160° |
| 2026-04-28 11:26 | -15.89563 | 28.64391 | 25054 ft | 340 kts | 160° |
| 2026-04-28 11:26 | -15.91765 | 28.65239 | 25054 ft | 340 kts | 159° |
| 2026-04-28 11:26 | -15.93995 | 28.66098 | 24905 ft | 344 kts | 159° |
| 2026-04-28 11:26 | -15.96205 | 28.66950 | 24429 ft | 338 kts | 159° |
| 2026-04-28 11:27 | -15.98385 | 28.67791 | 23952 ft | 333 kts | 159° |
| 2026-04-28 11:27 | -16.00552 | 28.68627 | 23472 ft | 328 kts | 159° |
| 2026-04-28 11:27 | -16.02665 | 28.69442 | 22997 ft | 324 kts | 159° |
| 2026-04-28 11:27 | -16.04754 | 28.70247 | 22523 ft | 321 kts | 159° |
| 2026-04-28 11:28 | -16.06826 | 28.71047 | 22048 ft | 318 kts | 159° |
| 2026-04-28 11:28 | -16.08876 | 28.71837 | 21575 ft | 315 kts | 159° |
| 2026-04-28 11:28 | -16.10905 | 28.72620 | 21098 ft | 308 kts | 159° |
| 2026-04-28 11:28 | -16.12903 | 28.73393 | 20616 ft | 300 kts | 159° |
| 2026-04-28 11:29 | -16.14861 | 28.74150 | 20132 ft | 294 kts | 159° |
| 2026-04-28 11:29 | -16.16759 | 28.74882 | 19654 ft | 288 kts | 159° |
| 2026-04-28 11:29 | -16.18626 | 28.75604 | 19176 ft | 284 kts | 159° |
| 2026-04-28 11:29 | -16.20434 | 28.76302 | 18706 ft | 280 kts | 159° |
| 2026-04-28 11:30 | -16.22265 | 28.77010 | 18224 ft | 277 kts | 159° |
| 2026-04-28 11:30 | -16.25817 | 28.78383 | 17275 ft | 271 kts | 159° |
| 2026-04-28 11:30 | -16.27564 | 28.79058 | 16802 ft | 269 kts | 159° |
| 2026-04-28 11:31 | -16.29311 | 28.79734 | 16325 ft | 267 kts | 159° |
| 2026-04-28 11:31 | -16.31039 | 28.80403 | 15848 ft | 262 kts | 159° |
| 2026-04-28 11:31 | -16.32719 | 28.81054 | 15371 ft | 256 kts | 159° |
| 2026-04-28 11:31 | -16.34363 | 28.81690 | 14894 ft | 250 kts | 159° |
| 2026-04-28 11:32 | -16.35955 | 28.82306 | 14423 ft | 246 kts | 159° |
| 2026-04-28 11:32 | -16.37545 | 28.82921 | 13945 ft | 242 kts | 159° |
| 2026-04-28 11:32 | -16.39107 | 28.83526 | 13469 ft | 239 kts | 159° |
| 2026-04-28 11:32 | -16.40637 | 28.84118 | 12996 ft | 236 kts | 159° |
| 2026-04-28 11:33 | -16.42161 | 28.84708 | 12521 ft | 234 kts | 159° |
| 2026-04-28 11:33 | -16.43683 | 28.85298 | 12042 ft | 232 kts | 159° |
| 2026-04-28 11:33 | -16.45165 | 28.85872 | 11571 ft | 230 kts | 159° |
| 2026-04-28 11:33 | -16.46654 | 28.86449 | 11095 ft | 228 kts | 159° |
| 2026-04-28 11:34 | -16.48134 | 28.87023 | 10618 ft | 226 kts | 159° |
| 2026-04-28 11:34 | -16.49596 | 28.87602 | 10142 ft | 225 kts | 156° |
| 2026-04-28 11:34 | -16.50989 | 28.88302 | 9669 ft | 224 kts | 159° |
| 2026-04-28 11:34 | -16.52481 | 28.88705 | 9197 ft | 222 kts | 168° |
| 2026-04-28 11:35 | -16.53993 | 28.89031 | 8719 ft | 221 kts | 168° |
| 2026-04-28 11:35 | -16.55493 | 28.89228 | 8248 ft | 220 kts | 181° |
| 2026-04-28 11:35 | -16.56991 | 28.88969 | 7771 ft | 219 kts | 201° |
| 2026-04-28 11:35 | -16.58080 | 28.87927 | 7301 ft | 217 kts | 243° |
| 2026-04-28 11:36 | -16.58443 | 28.86427 | 6835 ft | 216 kts | 265° |
| 2026-04-28 11:36 | -16.58529 | 28.84879 | 6363 ft | 215 kts | 267° |
| 2026-04-28 11:36 | -16.58613 | 28.83315 | 5884 ft | 215 kts | 266° |
| 2026-04-28 11:36 | -16.58679 | 28.81758 | 5296 ft | 219 kts | 267° |
| 2026-04-28 11:37 | -16.58653 | 28.80175 | 4814 ft | 217 kts | 285° |
| 2026-04-28 11:37 | -16.57772 | 28.78981 | 4348 ft | 214 kts | 330° |
| 2026-04-28 11:37 | -16.56371 | 28.78707 | 4072 ft | 202 kts | 11° |
| 2026-04-28 11:37 | -16.55200 | 28.79389 | 3848 ft | 191 kts | 44° |
| 2026-04-28 11:38 | -16.54294 | 28.80319 | 3716 ft | 178 kts | 44° |
| 2026-04-28 11:38 | -16.53429 | 28.81197 | 3605 ft | 166 kts | 45° |
| 2026-04-28 11:38 | -16.52830 | 28.82229 | 3248 ft | 173 kts | 71° |
| 2026-04-28 11:38 | -16.52591 | 28.83506 | 2717 ft | 187 kts | 84° |
| 2026-04-28 11:39 | -16.52464 | 28.84868 | 2255 ft | 191 kts | 81° |
| 2026-04-28 11:39 | -16.52265 | 28.86171 | 1965 ft | 166 kts | 83° |
| 2026-04-28 11:39 | -16.52143 | 28.87260 | 1772 ft | 136 kts | 82° |
| 2026-04-28 11:39 | -16.52032 | 28.88132 | 1684 ft | 108 kts | 83° |
| 2026-04-28 11:40 | -16.51973 | 28.88615 | 1702 ft | 27 kts | 83° |
| 2026-04-28 11:40 | -16.51945 | 28.88690 | 1704 ft | 7 kts | 14° |
| 2026-04-28 11:40 | -16.51900 | 28.88689 | 1705 ft | 4 kts | 354° |
| 2026-04-28 11:40 | -16.51879 | 28.88685 | 1705 ft | 2 kts | 346° |
| 2026-04-28 11:41 | -16.51860 | 28.88662 | 1704 ft | 6 kts | 270° |
| 2026-04-28 11:41 | -16.51846 | 28.88650 | 1704 ft | 0 kts | 34° |